Time;durP1;ratioP1;P1;durP2;ratioP2;P2;SDS_P1;SDS_P2;PMS_P1;PMS_P2;Temp;Humidity;BMP_temperature;BMP_pressure;BME280_temperature;BME280_humidity;BME280_pressure;Samples;Min_cycle;Max_cycle;Signal;HPM_P1;HPM_P2
2020/12/29 00:01:00;;;;;;;23.95;20.38;;;5.80;99.90;;;;;;5051979;28;20636;-50
2020/12/29 00:03:26;;;;;;;25.10;20.45;;;5.50;99.90;;;;;;5051423;28;20245;-50
2020/12/29 00:05:54;;;;;;;27.75;20.50;;;5.60;99.90;;;;;;5050955;28;20259;-50
2020/12/29 00:08:20;;;;;;;25.60;20.48;;;5.50;99.90;;;;;;5051664;28;20560;-49
2020/12/29 00:10:46;;;;;;;30.35;19.85;;;5.50;99.90;;;;;;5051650;28;20220;-50
2020/12/29 00:13:14;;;;;;;26.17;20.98;;;5.60;99.90;;;;;;5051544;28;20196;-50
2020/12/29 00:15:41;;;;;;;31.50;21.83;;;5.60;99.90;;;;;;5051178;28;20219;-49
2020/12/29 00:18:08;;;;;;;29.88;20.08;;;5.50;99.90;;;;;;5051857;28;20188;-49
2020/12/29 00:20:35;;;;;;;27.00;19.58;;;5.50;99.90;;;;;;5051465;28;20225;-50
2020/12/29 00:23:03;;;;;;;25.60;19.23;;;5.40;99.90;;;;;;5051033;28;20265;-49
2020/12/29 00:25:29;;;;;;;27.73;21.40;;;5.60;99.90;;;;;;5051129;28;20237;-50
2020/12/29 00:27:56;;;;;;;29.15;21.52;;;5.60;99.90;;;;;;5051525;28;20199;-49
2020/12/29 00:30:22;;;;;;;23.67;20.33;;;5.60;99.90;;;;;;5051041;28;20216;-50
2020/12/29 00:32:50;;;;;;;25.98;20.45;;;5.50;99.90;;;;;;5050829;28;20196;-50
2020/12/29 00:35:16;;;;;;;29.75;22.73;;;5.50;99.90;;;;;;5051253;28;20207;-49
2020/12/29 00:37:43;;;;;;;27.27;21.02;;;5.60;99.90;;;;;;5051363;28;20202;-49
2020/12/29 00:40:11;;;;;;;24.02;20.83;;;5.40;99.90;;;;;;5051505;28;20200;-49
2020/12/29 00:42:38;;;;;;;27.63;19.83;;;5.40;99.90;;;;;;5050888;28;20219;-48
2020/12/29 00:45:04;;;;;;;28.10;20.98;;;5.30;99.90;;;;;;5051324;28;20586;-50
2020/12/29 00:47:31;;;;;;;27.10;20.48;;;5.60;99.90;;;;;;5051264;28;20664;-49
2020/12/29 00:49:58;;;;;;;26.58;21.08;;;5.60;99.90;;;;;;5050919;28;20219;-50
2020/12/29 00:52:24;;;;;;;26.13;21.42;;;5.50;99.90;;;;;;5049320;28;20291;-49
2020/12/29 00:54:59;;;;;;;24.70;20.25;;;5.40;99.90;;;;;;5049715;28;20238;-50
2020/12/29 00:57:35;;;;;;;31.02;23.08;;;5.50;99.90;;;;;;5049701;28;20203;-49
2020/12/29 01:00:05;;;;;;;30.52;22.23;;;5.40;99.90;;;;;;5049506;28;20192;-49
2020/12/29 01:02:39;;;;;;;26.48;21.00;;;5.30;99.90;;;;;;5050017;28;20218;-50
2020/12/29 01:05:18;;;;;;;26.70;21.10;;;5.30;99.90;;;;;;5050695;28;20227;-49
2020/12/29 01:07:45;;;;;;;27.90;21.00;;;5.40;99.90;;;;;;5050905;28;20269;-50
2020/12/29 01:10:12;;;;;;;27.17;20.83;;;5.40;99.90;;;;;;5049680;28;20251;-50
2020/12/29 01:12:59;;;;;;;29.80;19.42;;;5.60;99.90;;;;;;5050852;28;20278;-49
2020/12/29 01:15:26;;;;;;;24.88;20.00;;;5.10;99.90;;;;;;5049541;28;20255;-50
2020/12/29 01:18:05;;;;;;;29.98;21.00;;;5.80;99.90;;;;;;5054889;28;20249;-49
2020/12/29 01:20:32;;;;;;;25.95;19.92;;;5.20;99.90;;;;;;5054642;28;20188;-49
2020/12/29 01:22:59;;;;;;;28.05;20.42;;;5.20;99.90;;;;;;5054481;28;20192;-49
2020/12/29 01:25:26;;;;;;;27.25;22.13;;;5.30;99.90;;;;;;5054722;28;20627;-48
2020/12/29 01:27:52;;;;;;;25.65;20.50;;;5.30;99.90;;;;;;5054883;28;20199;-48
2020/12/29 01:30:20;;;;;;;29.98;21.75;;;5.30;99.90;;;;;;5054964;28;20258;-47
2020/12/29 01:32:46;;;;;;;28.83;20.65;;;5.20;99.90;;;;;;5055001;28;20192;-46
2020/12/29 01:35:13;;;;;;;89.03;28.63;;;5.30;99.90;;;;;;5054732;28;20711;-48
2020/12/29 01:37:42;;;;;;;30.95;21.70;;;5.40;99.90;;;;;;5054719;28;20521;-47
2020/12/29 01:40:09;;;;;;;28.08;20.33;;;5.30;99.90;;;;;;5054888;28;20700;-47
2020/12/29 01:42:36;;;;;;;28.75;20.73;;;5.10;99.90;;;;;;5054658;28;20196;-47
2020/12/29 01:45:06;;;;;;;29.80;21.90;;;5.20;99.90;;;;;;5055109;28;20299;-47
2020/12/29 01:47:36;;;;;;;30.92;21.75;;;5.30;99.90;;;;;;5053875;28;20206;-48
2020/12/29 01:50:09;;;;;;;26.70;21.52;;;5.30;99.90;;;;;;5054663;28;20220;-48
2020/12/29 01:52:37;;;;;;;31.42;21.98;;;5.10;99.90;;;;;;5054038;28;20653;-48
2020/12/29 01:55:04;;;;;;;23.27;20.30;;;5.20;99.90;;;;;;5054078;28;20212;-48
2020/12/29 01:57:32;;;;;;;29.08;21.40;;;5.60;99.90;;;;;;5054900;28;20200;-48
2020/12/29 01:59:58;;;;;;;28.83;20.52;;;5.40;99.90;;;;;;5053808;28;20233;-49
2020/12/29 02:02:26;;;;;;;29.88;22.73;;;5.10;99.90;;;;;;5053642;28;20419;-48
2020/12/29 02:04:53;;;;;;;30.90;21.15;;;5.30;99.90;;;;;;5053719;28;20562;-48
2020/12/29 02:07:20;;;;;;;31.90;21.77;;;5.20;99.90;;;;;;5053835;28;20200;-48
2020/12/29 02:09:47;;;;;;;28.35;21.02;;;5.30;99.90;;;;;;5053704;28;20219;-47
2020/12/29 02:12:27;;;;;;;30.02;21.58;;;5.10;99.90;;;;;;5053641;28;20250;-49
2020/12/29 02:14:54;;;;;;;30.70;22.35;;;5.20;99.90;;;;;;5053384;28;20287;-48
2020/12/29 02:17:21;;;;;;;29.17;21.88;;;5.30;99.90;;;;;;5053726;28;20196;-49
2020/12/29 02:19:48;;;;;;;29.42;21.75;;;5.20;99.90;;;;;;5053377;28;20189;-49
2020/12/29 02:22:19;;;;;;;27.27;22.20;;;5.10;99.90;;;;;;5053467;28;20675;-48
2020/12/29 02:24:51;;;;;;;28.70;22.10;;;5.30;99.90;;;;;;5053483;28;20187;-49
2020/12/29 02:27:18;;;;;;;29.90;22.45;;;5.20;99.90;;;;;;5053162;28;20216;-49
2020/12/29 02:29:45;;;;;;;32.70;22.52;;;5.10;99.90;;;;;;5053034;28;20261;-49
2020/12/29 02:32:12;;;;;;;32.42;20.98;;;5.20;99.90;;;;;;5053414;28;20734;-48
2020/12/29 02:34:39;;;;;;;31.30;21.40;;;5.20;99.90;;;;;;5053114;28;20203;-48
2020/12/29 02:37:07;;;;;;;30.48;22.98;;;5.20;99.90;;;;;;5053462;28;20202;-49
2020/12/29 02:39:36;;;;;;;28.58;22.08;;;5.20;99.90;;;;;;5053623;28;20271;-49
2020/12/29 02:42:03;;;;;;;30.73;22.08;;;5.20;99.90;;;;;;5053707;28;20207;-48
2020/12/29 02:44:29;;;;;;;31.85;22.30;;;5.10;99.90;;;;;;5053265;28;20196;-47
2020/12/29 02:46:56;;;;;;;33.55;22.13;;;5.10;99.90;;;;;;5053621;28;20321;-48
2020/12/29 02:49:22;;;;;;;29.08;22.20;;;5.10;99.90;;;;;;5053749;28;20583;-49
2020/12/29 02:51:49;;;;;;;29.45;21.92;;;5.00;99.90;;;;;;5053308;28;20212;-46
2020/12/29 02:54:16;;;;;;;28.77;23.42;;;5.20;99.90;;;;;;5053257;28;20200;-48
2020/12/29 02:56:44;;;;;;;29.13;21.25;;;5.10;99.90;;;;;;5053387;28;20295;-47
2020/12/29 02:59:11;;;;;;;28.73;22.00;;;5.40;99.90;;;;;;5051503;28;20204;-48
2020/12/29 03:01:38;;;;;;;30.75;21.52;;;4.90;99.90;;;;;;5052726;28;20633;-48
2020/12/29 03:04:05;;;;;;;28.50;19.95;;;5.20;99.90;;;;;;5052449;28;20262;-49
2020/12/29 03:06:31;;;;;;;29.15;22.15;;;5.20;99.90;;;;;;5052747;28;20219;-49
2020/12/29 03:08:58;;;;;;;30.52;22.85;;;5.10;99.90;;;;;;5052792;28;20558;-48
2020/12/29 03:11:26;;;;;;;28.20;20.70;;;5.20;99.90;;;;;;5052819;28;20701;-48
2020/12/29 03:13:54;;;;;;;29.65;21.10;;;5.10;99.90;;;;;;5052359;28;20657;-48
2020/12/29 03:16:21;;;;;;;30.35;21.17;;;4.90;99.90;;;;;;5086979;22;20226;-46
2020/12/29 03:18:47;;;;;;;27.48;20.73;;;5.00;99.90;;;;;;5070943;28;20207;-44
2020/12/29 03:21:14;;;;;;;27.98;21.02;;;4.80;99.90;;;;;;5071939;28;20200;-46
2020/12/29 03:23:41;;;;;;;29.95;21.65;;;5.10;99.90;;;;;;5072780;28;20235;-45
2020/12/29 03:26:08;;;;;;;27.00;21.13;;;5.00;99.90;;;;;;5072895;28;20302;-45
2020/12/29 03:28:34;;;;;;;28.80;21.42;;;4.90;99.90;;;;;;5073228;28;20195;-46
2020/12/29 03:31:02;;;;;;;30.20;22.10;;;4.80;99.90;;;;;;5072937;28;20215;-45
2020/12/29 03:33:29;;;;;;;29.70;20.23;;;4.80;99.90;;;;;;5072545;28;20195;-45
2020/12/29 03:35:55;;;;;;;29.60;21.33;;;4.90;99.90;;;;;;5071338;28;20212;-46
2020/12/29 03:38:22;;;;;;;28.95;22.27;;;5.10;99.90;;;;;;5072744;28;20195;-45
2020/12/29 03:40:49;;;;;;;29.80;21.90;;;4.90;99.90;;;;;;5071655;28;20652;-45
2020/12/29 03:43:16;;;;;;;23.30;20.80;;;5.10;99.90;;;;;;5072422;28;20663;-45
2020/12/29 03:45:43;;;;;;;29.35;21.95;;;5.00;99.90;;;;;;5072718;28;20585;-45
2020/12/29 03:48:14;;;;;;;24.63;20.20;;;5.00;99.90;;;;;;5072669;28;20230;-46
2020/12/29 03:50:41;;;;;;;26.20;19.70;;;5.00;99.90;;;;;;5072598;28;20227;-45
2020/12/29 03:53:08;;;;;;;27.65;20.27;;;5.00;99.90;;;;;;5072326;28;20222;-46
2020/12/29 03:55:35;;;;;;;26.27;20.98;;;5.30;99.90;;;;;;5072466;28;20215;-45
2020/12/29 03:58:01;;;;;;;23.30;19.40;;;5.00;99.90;;;;;;5072505;28;20282;-45
2020/12/29 04:00:28;;;;;;;27.50;22.33;;;5.10;99.90;;;;;;5072424;28;20748;-46
2020/12/29 04:02:54;;;;;;;26.45;20.38;;;5.10;99.90;;;;;;5071915;28;20245;-45
2020/12/29 04:05:22;;;;;;;31.02;20.73;;;5.00;99.90;;;;;;5072335;28;20687;-45
2020/12/29 04:07:48;;;;;;;25.92;19.92;;;5.20;99.90;;;;;;5072326;28;20191;-46
2020/12/29 04:10:15;;;;;;;25.58;19.90;;;5.20;99.90;;;;;;5072067;28;20211;-46
2020/12/29 04:12:42;;;;;;;23.02;18.90;;;5.30;99.90;;;;;;5071858;28;20281;-46
2020/12/29 04:15:09;;;;;;;25.75;20.05;;;5.10;99.90;;;;;;5071974;28;20191;-46
2020/12/29 04:17:36;;;;;;;24.83;19.55;;;5.00;99.90;;;;;;5072007;28;20215;-45
2020/12/29 04:20:04;;;;;;;23.75;19.10;;;5.20;99.90;;;;;;5072182;28;20184;-45
2020/12/29 04:22:32;;;;;;;30.85;21.02;;;5.20;99.90;;;;;;5070684;28;20210;-46
2020/12/29 04:24:59;;;;;;;22.92;18.25;;;5.30;99.90;;;;;;5071804;28;20556;-46
2020/12/29 04:27:25;;;;;;;26.73;19.55;;;5.10;99.90;;;;;;5072060;28;20664;-46
2020/12/29 04:29:52;;;;;;;28.45;20.48;;;5.10;99.90;;;;;;5071809;28;20698;-45
2020/12/29 04:32:19;;;;;;;29.20;20.15;;;5.20;99.90;;;;;;5071627;28;20195;-46
2020/12/29 04:34:46;;;;;;;27.45;21.00;;;4.90;99.90;;;;;;5070512;28;20563;-46
2020/12/29 04:37:13;;;;;;;24.50;18.67;;;5.30;99.90;;;;;;5070454;28;20231;-46
2020/12/29 04:39:41;;;;;;;28.73;19.42;;;5.20;99.90;;;;;;5070761;28;20207;-46
2020/12/29 04:42:12;;;;;;;27.25;20.33;;;4.90;99.90;;;;;;5071607;28;20207;-46
2020/12/29 04:44:39;;;;;;;26.45;20.13;;;4.90;99.90;;;;;;5070472;28;20545;-45
2020/12/29 04:47:06;;;;;;;28.33;20.63;;;5.20;99.90;;;;;;5071971;28;20218;-46
2020/12/29 04:49:34;;;;;;;27.55;19.83;;;5.10;99.90;;;;;;5072008;28;20187;-46
2020/12/29 04:52:05;;;;;;;28.30;20.75;;;5.00;99.90;;;;;;5072732;28;20218;-45
2020/12/29 04:54:33;;;;;;;27.48;20.45;;;5.20;99.90;;;;;;5071454;28;20195;-46
2020/12/29 04:57:03;;;;;;;27.95;21.85;;;4.90;99.90;;;;;;5071669;28;20211;-45
2020/12/29 04:59:30;;;;;;;24.55;19.10;;;4.90;99.90;;;;;;5070335;28;20199;-45
2020/12/29 05:01:57;;;;;;;26.20;20.48;;;4.90;99.90;;;;;;5071480;28;20660;-45
2020/12/29 05:04:24;;;;;;;29.30;21.15;;;5.20;99.90;;;;;;5071524;28;20714;-45
2020/12/29 05:06:52;;;;;;;27.42;21.83;;;5.00;99.90;;;;;;5071331;28;20292;-45
2020/12/29 05:09:19;;;;;;;30.23;21.70;;;4.90;99.90;;;;;;5071616;28;20274;-45
2020/12/29 05:11:46;;;;;;;31.95;22.67;;;4.20;99.90;;;;;;5071546;28;20265;-45
2020/12/29 05:14:14;;;;;;;29.50;22.05;;;4.80;99.90;;;;;;5071189;28;20191;-45
2020/12/29 05:16:40;;;;;;;31.38;21.92;;;4.60;99.90;;;;;;5071092;28;20223;-45
2020/12/29 05:19:08;;;;;;;27.80;20.80;;;4.60;99.90;;;;;;5071555;28;20215;-45
2020/12/29 05:21:36;;;;;;;30.60;22.70;;;4.70;99.90;;;;;;5071445;28;20274;-45
2020/12/29 05:24:09;;;;;;;26.70;21.60;;;4.50;99.90;;;;;;5070835;28;20187;-45
2020/12/29 05:26:37;;;;;;;31.77;23.05;;;4.40;99.90;;;;;;5071409;28;20222;-45
2020/12/29 05:29:05;;;;;;;31.75;24.20;;;4.30;99.90;;;;;;5071274;28;20195;-45
2020/12/29 05:31:34;;;;;;;26.70;20.85;;;3.70;99.90;;;;;;5071212;28;20218;-45
2020/12/29 05:34:01;;;;;;;28.13;21.92;;;4.20;99.90;;;;;;5071163;28;20655;-46
2020/12/29 05:36:28;;;;;;;29.45;20.17;;;4.30;99.90;;;;;;5071262;28;20218;-45
2020/12/29 05:39:05;;;;;;;30.55;21.77;;;4.40;99.90;;;;;;5071148;28;20188;-45
2020/12/29 05:41:37;;;;;;;27.67;19.38;;;4.50;99.90;;;;;;5071291;28;20681;-45
2020/12/29 05:44:05;;;;;;;26.52;20.90;;;4.30;99.90;;;;;;5070688;28;20191;-45
2020/12/29 05:46:33;;;;;;;33.60;22.35;;;4.40;99.90;;;;;;5069878;28;20257;-45
2020/12/29 05:49:00;;;;;;;29.50;22.10;;;4.30;99.90;;;;;;5071535;28;20567;-45
2020/12/29 05:51:28;;;;;;;27.35;21.17;;;4.40;99.90;;;;;;5071818;28;20219;-45
2020/12/29 05:54:04;;;;;;;28.55;20.88;;;4.40;99.90;;;;;;5071950;28;20253;-46
2020/12/29 05:56:32;;;;;;;28.52;21.85;;;4.40;99.90;;;;;;5071564;28;20256;-45
2020/12/29 05:59:01;;;;;;;29.02;22.10;;;3.50;99.90;;;;;;5071460;28;20203;-45
2020/12/29 06:01:39;;;;;;;35.40;21.08;;;4.00;99.90;;;;;;5071038;28;20241;-44
2020/12/29 06:04:06;;;;;;;30.08;22.20;;;4.40;99.90;;;;;;5073062;28;20187;-46
2020/12/29 06:06:35;;;;;;;34.05;21.27;;;4.20;99.90;;;;;;5074358;28;20215;-46
2020/12/29 06:09:07;;;;;;;31.58;22.52;;;4.30;99.90;;;;;;5073025;28;20249;-45
2020/12/29 06:11:39;;;;;;;29.13;20.60;;;4.00;99.90;;;;;;5074442;28;20234;-45
2020/12/29 06:14:16;;;;;;;26.80;19.90;;;4.20;99.90;;;;;;5073839;28;20241;-45
2020/12/29 06:16:45;;;;;;;26.75;21.05;;;4.10;99.90;;;;;;5073967;28;20296;-45
2020/12/29 06:19:23;;;;;;;30.77;22.30;;;4.20;99.90;;;;;;5073881;28;20192;-45
2020/12/29 06:22:11;;;;;;;28.92;21.60;;;4.10;99.90;;;;;;5074155;28;20244;-45
2020/12/29 06:24:38;;;;;;;31.58;22.85;;;4.00;99.90;;;;;;5073878;28;20203;-46
2020/12/29 06:27:07;;;;;;;27.67;20.80;;;3.40;99.90;;;;;;5073944;28;20235;-45
2020/12/29 06:29:36;;;;;;;26.35;20.50;;;4.10;99.90;;;;;;5073928;28;20199;-45
2020/12/29 06:32:06;;;;;;;31.13;21.85;;;4.00;99.90;;;;;;5073929;28;20192;-46
2020/12/29 06:34:35;;;;;;;29.05;20.92;;;4.00;99.90;;;;;;5073896;28;20594;-45
2020/12/29 06:37:13;;;;;;;31.17;22.02;;;3.80;99.90;;;;;;5073628;28;20241;-45
2020/12/29 06:39:43;;;;;;;32.10;20.80;;;4.00;99.90;;;;;;5073803;28;20713;-45
2020/12/29 06:42:10;;;;;;;33.53;22.77;;;3.40;99.90;;;;;;5073778;28;20225;-45
2020/12/29 06:44:37;;;;;;;26.65;20.20;;;3.80;99.90;;;;;;5073407;28;20191;-45
2020/12/29 06:47:09;;;;;;;28.20;21.08;;;4.00;99.90;;;;;;5072415;28;20218;-45
2020/12/29 06:49:35;;;;;;;30.40;21.38;;;3.80;99.90;;;;;;5073361;28;20239;-44
2020/12/29 06:52:28;;;;;;;26.30;20.20;;;3.60;99.90;;;;;;5073681;28;20722;-45
2020/12/29 06:54:55;;;;;;;30.15;21.65;;;4.00;99.90;;;;;;5073686;28;20199;-45
2020/12/29 06:57:24;;;;;;;29.95;22.90;;;3.30;99.90;;;;;;5073930;28;20192;-45
2020/12/29 06:59:50;;;;;;;29.33;21.77;;;4.00;99.90;;;;;;5074032;28;20191;-45
2020/12/29 07:02:20;;;;;;;32.58;22.50;;;3.70;99.90;;;;;;5073763;28;20187;-45
2020/12/29 07:04:50;;;;;;;30.83;21.50;;;3.80;99.90;;;;;;5073703;28;20191;-44
2020/12/29 07:07:45;;;;;;;30.13;22.98;;;4.00;99.90;;;;;;5071864;28;20788;-44
2020/12/29 07:10:13;;;;;;;33.28;22.70;;;4.00;99.90;;;;;;5071412;28;20718;-45
2020/12/29 07:12:43;;;;;;;30.52;23.40;;;4.00;99.90;;;;;;5073136;28;20214;-45
2020/12/29 07:15:13;;;;;;;31.63;22.95;;;3.70;99.90;;;;;;5072866;28;20226;-45
2020/12/29 07:17:52;;;;;;;32.25;22.30;;;3.90;99.90;;;;;;5071683;28;20200;-46
2020/12/29 07:20:21;;;;;;;33.83;21.48;;;3.70;99.90;;;;;;5071764;28;20196;-45
2020/12/29 07:22:54;;;;;;;30.08;20.65;;;3.50;99.90;;;;;;5072365;28;20627;-46
2020/12/29 07:25:26;;;;;;;27.25;20.17;;;3.50;99.90;;;;;;5073117;28;20581;-45
2020/12/29 07:27:58;;;;;;;29.10;21.08;;;3.60;99.90;;;;;;5072736;28;20192;-45
2020/12/29 07:30:26;;;;;;;30.48;21.17;;;3.80;99.90;;;;;;5072589;28;20306;-44
2020/12/29 07:32:57;;;;;;;28.80;21.55;;;3.70;99.90;;;;;;5072674;28;20195;-45
2020/12/29 07:35:27;;;;;;;28.85;21.95;;;3.60;99.90;;;;;;5071285;28;20705;-44
2020/12/29 07:37:55;;;;;;;26.90;19.88;;;3.90;99.90;;;;;;5072769;28;20626;-45
2020/12/29 07:40:23;;;;;;;29.13;20.83;;;3.70;99.90;;;;;;5072734;28;20742;-44
2020/12/29 07:42:49;;;;;;;31.70;22.05;;;3.60;99.90;;;;;;5073216;28;20191;-44
2020/12/29 07:45:16;;;;;;;28.65;21.40;;;3.90;99.90;;;;;;5074623;28;20540;-44
2020/12/29 07:47:42;;;;;;;26.95;19.50;;;3.60;99.90;;;;;;5074467;28;20580;-45
2020/12/29 07:50:10;;;;;;;27.63;21.08;;;3.70;99.90;;;;;;5073979;28;20222;-44
2020/12/29 07:52:36;;;;;;;26.80;21.00;;;3.60;99.90;;;;;;5073063;28;20195;-45
2020/12/29 07:55:08;;;;;;;25.85;20.25;;;3.90;99.90;;;;;;5073150;28;20207;-45
2020/12/29 07:57:35;;;;;;;30.05;21.30;;;3.50;99.90;;;;;;5071750;28;20253;-44
2020/12/29 08:00:12;;;;;;;32.13;21.75;;;3.70;99.90;;;;;;5073452;28;20194;-44
2020/12/29 08:02:39;;;;;;;29.48;21.92;;;3.80;99.90;;;;;;5073107;28;20199;-43
2020/12/29 08:05:06;;;;;;;27.75;22.50;;;3.60;99.90;;;;;;5072747;28;20241;-44
2020/12/29 08:07:34;;;;;;;35.78;23.25;;;3.60;99.90;;;;;;5071643;28;20242;-45
2020/12/29 08:10:00;;;;;;;32.10;24.30;;;3.70;99.90;;;;;;5071489;28;20222;-45
2020/12/29 08:12:27;;;;;;;31.98;23.33;;;3.70;99.90;;;;;;5071998;28;20183;-44
2020/12/29 08:14:54;;;;;;;35.25;22.65;;;3.70;99.90;;;;;;5071869;28;20241;-45
2020/12/29 08:17:20;;;;;;;33.92;23.88;;;4.00;99.90;;;;;;5071951;28;20246;-45
2020/12/29 08:20:00;;;;;;;34.25;23.80;;;3.90;99.90;;;;;;5071447;28;20199;-45
2020/12/29 08:22:28;;;;;;;35.17;23.73;;;3.70;99.90;;;;;;5072280;28;20203;-46
2020/12/29 08:24:56;;;;;;;31.88;24.05;;;3.50;99.90;;;;;;5074058;28;20219;-44
2020/12/29 08:27:23;;;;;;;34.58;23.55;;;3.50;99.90;;;;;;5071448;28;20195;-46
2020/12/29 08:29:49;;;;;;;28.17;22.35;;;3.70;99.90;;;;;;5072593;28;20202;-44
2020/12/29 08:32:20;;;;;;;27.13;21.95;;;3.50;99.90;;;;;;5072761;28;20191;-44
2020/12/29 08:34:48;;;;;;;30.10;22.00;;;3.90;99.90;;;;;;5072401;28;20199;-45
2020/12/29 08:37:18;;;;;;;34.05;22.02;;;3.90;99.90;;;;;;5072315;28;20286;-44
2020/12/29 08:40:08;;;;;;;29.70;21.77;;;3.50;99.90;;;;;;5074503;28;20729;-45
2020/12/29 08:42:35;;;;;;;28.88;21.35;;;3.50;99.90;;;;;;5055331;28;20199;-45
2020/12/29 08:45:07;;;;;;;27.92;19.98;;;3.90;99.90;;;;;;5052093;28;20200;-46
2020/12/29 08:47:34;;;;;;;28.60;21.45;;;3.90;99.90;;;;;;5053113;28;20286;-45
2020/12/29 08:50:16;;;;;;;28.58;21.20;;;3.80;99.90;;;;;;5051864;28;20192;-45
2020/12/29 08:52:42;;;;;;;28.70;21.35;;;3.80;99.90;;;;;;5051367;28;20200;-45
2020/12/29 08:55:26;;;;;;;29.05;21.20;;;4.00;99.90;;;;;;5050329;28;20569;-45
2020/12/29 08:57:56;;;;;;;27.90;20.83;;;3.90;99.90;;;;;;5051583;28;20192;-45
2020/12/29 09:00:23;;;;;;;29.05;20.17;;;4.00;99.90;;;;;;5053534;28;20238;-44
2020/12/29 09:02:49;;;;;;;31.92;20.80;;;4.10;99.90;;;;;;5071095;28;20188;-45
2020/12/29 09:05:21;;;;;;;30.63;21.98;;;4.00;99.90;;;;;;5071380;28;20270;-45
2020/12/29 09:07:48;;;;;;;27.48;20.10;;;4.10;99.90;;;;;;5071465;28;20195;-45
2020/12/29 09:10:16;;;;;;;26.88;20.52;;;4.20;99.90;;;;;;5070024;28;20276;-45
2020/12/29 09:12:43;;;;;;;28.00;20.42;;;4.10;99.90;;;;;;5071031;28;20249;-45
2020/12/29 09:15:11;;;;;;;27.73;18.45;;;4.00;99.90;;;;;;5071341;28;20192;-46
2020/12/29 09:17:40;;;;;;;30.90;20.25;;;4.20;99.90;;;;;;5032898;22;20330;-47
2020/12/29 09:20:14;;;;;;;25.52;19.95;;;4.00;99.90;;;;;;5010756;28;20703;-48
2020/12/29 09:22:56;;;;;;;28.35;20.02;;;4.00;99.90;;;;;;5010511;28;20200;-46
2020/12/29 09:25:26;;;;;;;25.38;19.48;;;4.20;99.90;;;;;;5010763;28;20197;-49
2020/12/29 09:28:16;;;;;;;30.02;20.83;;;4.60;99.90;;;;;;4991031;28;20201;-48
2020/12/29 09:30:45;;;;;;;22.30;17.35;;;4.30;99.90;;;;;;4990773;28;20666;-48
2020/12/29 09:33:19;;;;;;;23.27;17.00;;;4.50;99.90;;;;;;4990612;28;20201;-48
2020/12/29 09:35:45;;;;;;;22.77;18.85;;;4.10;99.90;;;;;;4990690;28;20202;-48
2020/12/29 09:38:13;;;;;;;24.33;17.75;;;4.40;99.90;;;;;;4993081;28;20202;-49
2020/12/29 09:40:41;;;;;;;33.25;22.52;;;4.40;99.90;;;;;;4994755;28;20277;-48
2020/12/29 09:43:08;;;;;;;28.05;21.67;;;4.40;99.90;;;;;;4994210;28;20277;-49
2020/12/29 09:45:34;;;;;;;25.13;19.08;;;4.10;99.90;;;;;;4992884;28;20252;-48
2020/12/29 09:48:01;;;;;;;24.60;18.23;;;4.70;99.90;;;;;;4994210;28;20194;-49
2020/12/29 09:50:28;;;;;;;22.73;18.30;;;4.40;99.90;;;;;;4994363;28;20225;-49
2020/12/29 09:52:54;;;;;;;24.92;18.98;;;4.60;99.90;;;;;;4993744;28;20194;-47
2020/12/29 09:55:21;;;;;;;24.17;18.45;;;4.70;99.90;;;;;;4994004;28;20214;-48
2020/12/29 09:57:48;;;;;;;22.27;18.40;;;4.50;99.90;;;;;;4993740;28;20247;-47
2020/12/29 10:00:15;;;;;;;26.13;18.30;;;4.70;99.90;;;;;;4994177;28;20190;-47
2020/12/29 10:02:41;;;;;;;25.42;17.08;;;4.70;99.90;;;;;;4993804;28;20253;-48
2020/12/29 10:05:08;;;;;;;22.35;18.00;;;4.80;99.90;;;;;;4994089;28;20236;-48
2020/12/29 10:07:34;;;;;;;25.38;19.40;;;4.70;99.90;;;;;;4994044;28;20241;-48
2020/12/29 10:10:01;;;;;;;22.05;16.77;;;4.80;99.90;;;;;;4993421;28;20209;-47
2020/12/29 10:12:27;;;;;;;24.13;18.70;;;4.80;99.90;;;;;;4993723;28;20197;-48
2020/12/29 10:14:56;;;;;;;24.38;17.40;;;5.00;99.90;;;;;;4993939;28;20209;-47
2020/12/29 10:17:23;;;;;;;23.20;17.10;;;4.80;99.90;;;;;;5008586;28;20225;-47
2020/12/29 10:19:50;;;;;;;21.25;16.92;;;5.00;99.90;;;;;;5013331;28;20205;-46
2020/12/29 10:22:17;;;;;;;22.63;17.08;;;4.90;99.90;;;;;;5013410;28;20190;-48
2020/12/29 10:24:43;;;;;;;27.77;17.95;;;4.90;99.90;;;;;;5012854;28;20664;-49
2020/12/29 10:27:10;;;;;;;22.95;19.63;;;4.90;99.90;;;;;;5013498;28;20288;-48
2020/12/29 10:29:36;;;;;;;23.88;18.27;;;4.80;99.90;;;;;;5013431;28;20197;-48
2020/12/29 10:32:04;;;;;;;22.17;16.40;;;4.90;99.90;;;;;;5013319;28;20221;-47
2020/12/29 10:34:31;;;;;;;20.92;16.98;;;5.20;99.90;;;;;;5012901;28;20217;-47
2020/12/29 10:36:57;;;;;;;22.48;16.25;;;5.20;99.90;;;;;;5013079;28;20213;-47
2020/12/29 10:39:24;;;;;;;19.95;15.82;;;5.20;99.90;;;;;;5013396;28;20202;-47
2020/12/29 10:41:50;;;;;;;21.73;16.55;;;5.00;99.90;;;;;;4992225;28;20204;-47
2020/12/29 10:44:17;;;;;;;19.55;16.13;;;5.10;99.90;;;;;;4993519;28;20273;-47
2020/12/29 10:46:46;;;;;;;18.25;14.45;;;5.00;99.90;;;;;;4992228;28;20250;-48
2020/12/29 10:49:14;;;;;;;22.40;15.80;;;5.20;99.90;;;;;;4993024;28;20206;-48
2020/12/29 10:51:40;;;;;;;16.70;13.75;;;5.40;99.90;;;;;;4993644;28;20214;-48
2020/12/29 10:54:07;;;;;;;20.77;16.63;;;5.00;99.90;;;;;;4993019;28;20202;-48
2020/12/29 10:56:35;;;;;;;21.75;15.35;;;5.30;99.90;;;;;;4993091;28;20678;-47
2020/12/29 10:59:02;;;;;;;20.85;15.77;;;5.30;99.90;;;;;;4993037;28;20274;-47
2020/12/29 11:01:29;;;;;;;19.88;15.00;;;5.50;99.90;;;;;;4993122;28;20292;-48
2020/12/29 11:03:55;;;;;;;18.55;15.52;;;5.30;99.90;;;;;;4991116;28;20216;-47
2020/12/29 11:06:23;;;;;;;20.95;15.10;;;5.50;99.90;;;;;;4993588;28;20797;-48
2020/12/29 11:08:51;;;;;;;19.73;15.00;;;5.40;99.90;;;;;;4992966;28;20686;-48
2020/12/29 11:11:19;;;;;;;20.45;15.35;;;5.60;99.90;;;;;;4992866;28;20220;-47
2020/12/29 11:13:45;;;;;;;16.90;14.10;;;5.30;99.90;;;;;;4992621;28;20198;-48
2020/12/29 11:16:16;;;;;;;16.67;13.23;;;5.50;99.90;;;;;;4992793;28;20699;-48
2020/12/29 11:18:43;;;;;;;22.60;14.50;;;5.70;99.90;;;;;;4992573;28;20670;-50
2020/12/29 11:21:09;;;;;;;17.48;13.23;;;5.60;99.90;;;;;;4992304;28;20285;-48
2020/12/29 11:23:37;;;;;;;16.50;13.82;;;5.70;99.90;;;;;;4992235;28;20678;-47
2020/12/29 11:26:04;;;;;;;16.70;12.68;;;5.60;99.90;;;;;;4992781;28;20264;-48
2020/12/29 11:28:31;;;;;;;16.38;11.77;;;5.60;99.90;;;;;;4992571;28;20289;-48
2020/12/29 11:30:57;;;;;;;16.00;12.20;;;5.70;99.90;;;;;;4992380;28;20525;-47
2020/12/29 11:33:24;;;;;;;16.58;14.10;;;5.60;99.90;;;;;;4991980;28;20661;-47
2020/12/29 11:35:50;;;;;;;15.55;13.00;;;6.30;99.90;;;;;;4996682;28;20232;-48
2020/12/29 11:38:20;;;;;;;18.52;13.05;;;6.10;99.90;;;;;;5011914;28;20201;-49
2020/12/29 11:40:47;;;;;;;14.25;11.32;;;6.10;99.90;;;;;;5012378;28;20189;-48
2020/12/29 11:43:14;;;;;;;16.38;12.75;;;5.70;99.90;;;;;;5012657;28;20658;-47
2020/12/29 11:45:42;;;;;;;15.20;12.38;;;6.20;99.90;;;;;;5011819;28;20196;-48
2020/12/29 11:48:08;;;;;;;16.45;12.77;;;5.80;99.90;;;;;;5011671;28;20185;-47
2020/12/29 11:50:35;;;;;;;14.50;11.60;;;5.60;99.90;;;;;;4993921;28;20579;-49
2020/12/29 11:53:01;;;;;;;15.18;11.15;;;6.20;99.90;;;;;;5011215;28;20403;-47
2020/12/29 11:55:28;;;;;;;13.63;11.90;;;5.70;99.90;;;;;;4993707;28;20206;-47
2020/12/29 11:57:55;;;;;;;14.23;11.43;;;6.00;99.90;;;;;;5011595;28;20205;-48
2020/12/29 12:00:22;;;;;;;13.00;11.20;;;5.70;99.90;;;;;;5010935;28;20225;-47
2020/12/29 12:02:48;;;;;;;14.20;11.73;;;5.50;99.90;;;;;;5010711;28;20200;-47
2020/12/29 12:05:15;;;;;;;14.10;10.90;;;6.30;99.90;;;;;;5011218;28;20662;-47
2020/12/29 12:07:42;;;;;;;18.40;15.52;;;5.70;99.90;;;;;;4993614;28;20698;-48
2020/12/29 12:10:09;;;;;;;16.65;12.10;;;5.80;99.90;;;;;;5011680;28;20206;-48
2020/12/29 12:12:36;;;;;;;16.23;12.35;;;5.80;99.90;;;;;;5011125;28;20637;-48
2020/12/29 12:15:04;;;;;;;17.08;13.18;;;5.70;99.90;;;;;;5011410;28;20669;-47
2020/12/29 12:17:30;;;;;;;15.05;11.90;;;5.60;99.90;;;;;;5011035;28;20698;-47
2020/12/29 12:19:57;;;;;;;16.98;11.60;;;5.10;99.90;;;;;;5011180;28;20209;-48
2020/12/29 12:22:24;;;;;;;19.02;12.15;;;5.90;99.90;;;;;;5011031;28;20755;-47
2020/12/29 12:24:51;;;;;;;14.65;11.88;;;5.80;99.90;;;;;;5010974;28;20193;-48
2020/12/29 12:27:17;;;;;;;33.00;13.75;;;5.50;99.90;;;;;;5011286;28;20236;-47
2020/12/29 12:29:44;;;;;;;16.17;10.68;;;5.60;99.90;;;;;;5011568;28;20201;-48
2020/12/29 12:32:11;;;;;;;13.95;10.95;;;5.00;99.90;;;;;;5010713;28;20700;-48
2020/12/29 12:34:37;;;;;;;15.10;11.48;;;5.70;99.90;;;;;;5010658;28;20201;-46
2020/12/29 12:37:04;;;;;;;12.73;11.38;;;5.80;99.90;;;;;;4992720;28;20220;-47
2020/12/29 12:39:31;;;;;;;15.35;11.43;;;5.60;99.90;;;;;;5010913;28;20189;-46
2020/12/29 12:41:57;;;;;;;11.25;9.68;;;5.60;99.90;;;;;;5010806;28;20505;-48